sensor_id;sensor_type;location;lat;lon;timestamp;temperature;humidity
29939;DHT22;16799;50.844;5.304;2023-03-03T00:00:36;2.00;99.90
29939;DHT22;16799;50.844;5.304;2023-03-03T00:03:05;1.90;99.90
29939;DHT22;16799;50.844;5.304;2023-03-03T00:05:32;2.00;99.90
29939;DHT22;16799;50.844;5.304;2023-03-03T00:07:58;1.90;99.90
29939;DHT22;16799;50.844;5.304;2023-03-03T00:10:24;1.90;99.90
29939;DHT22;16799;50.844;5.304;2023-03-03T00:12:50;1.80;99.90
29939;DHT22;16799;50.844;5.304;2023-03-03T00:15:21;1.80;99.90
29939;DHT22;16799;50.844;5.304;2023-03-03T00:17:47;1.80;99.90
29939;DHT22;16799;50.844;5.304;2023-03-03T00:20:35;1.70;99.90
29939;DHT22;16799;50.844;5.304;2023-03-03T00:23:19;1.70;99.90
29939;DHT22;16799;50.844;5.304;2023-03-03T00:25:49;1.60;99.90
29939;DHT22;16799;50.844;5.304;2023-03-03T00:28:20;1.60;99.90
29939;DHT22;16799;50.844;5.304;2023-03-03T00:30:47;1.50;99.90
29939;DHT22;16799;50.844;5.304;2023-03-03T00:33:33;1.50;99.90
29939;DHT22;16799;50.844;5.304;2023-03-03T00:39:10;1.40;99.90
29939;DHT22;16799;50.844;5.304;2023-03-03T00:41:40;1.40;99.90
29939;DHT22;16799;50.844;5.304;2023-03-03T00:46:51;1.30;99.90
29939;DHT22;16799;50.844;5.304;2023-03-03T00:49:23;1.20;99.90
29939;DHT22;16799;50.844;5.304;2023-03-03T00:51:50;1.10;99.90
29939;DHT22;16799;50.844;5.304;2023-03-03T00:54:16;1.20;99.90
29939;DHT22;16799;50.844;5.304;2023-03-03T00:56:42;1.20;99.90
29939;DHT22;16799;50.844;5.304;2023-03-03T00:59:07;1.20;99.90
29939;DHT22;16799;50.844;5.304;2023-03-03T01:01:33;1.10;99.90
29939;DHT22;16799;50.844;5.304;2023-03-03T01:03:59;1.10;99.90
29939;DHT22;16799;50.844;5.304;2023-03-03T01:06:24;1.10;99.90
29939;DHT22;16799;50.844;5.304;2023-03-03T01:08:50;1.10;99.90
29939;DHT22;16799;50.844;5.304;2023-03-03T01:11:20;1.10;99.90
29939;DHT22;16799;50.844;5.304;2023-03-03T01:13:49;1.20;99.90
29939;DHT22;16799;50.844;5.304;2023-03-03T01:16:16;1.10;99.90
29939;DHT22;16799;50.844;5.304;2023-03-03T01:18:42;1.10;99.90
29939;DHT22;16799;50.844;5.304;2023-03-03T01:21:08;1.20;99.90
29939;DHT22;16799;50.844;5.304;2023-03-03T01:23:34;1.30;99.90
29939;DHT22;16799;50.844;5.304;2023-03-03T01:26:00;1.30;99.90
29939;DHT22;16799;50.844;5.304;2023-03-03T01:28:26;1.40;99.90
29939;DHT22;16799;50.844;5.304;2023-03-03T01:30:52;1.50;99.90
29939;DHT22;16799;50.844;5.304;2023-03-03T01:33:18;1.60;99.90
29939;DHT22;16799;50.844;5.304;2023-03-03T01:35:47;1.70;99.90
29939;DHT22;16799;50.844;5.304;2023-03-03T01:38:13;1.70;99.90
29939;DHT22;16799;50.844;5.304;2023-03-03T01:40:39;1.80;99.90
29939;DHT22;16799;50.844;5.304;2023-03-03T01:43:06;1.90;99.90
29939;DHT22;16799;50.844;5.304;2023-03-03T01:48:35;2.20;99.90
29939;DHT22;16799;50.844;5.304;2023-03-03T01:51:06;2.20;99.90
29939;DHT22;16799;50.844;5.304;2023-03-03T01:53:42;2.30;99.90
29939;DHT22;16799;50.844;5.304;2023-03-03T01:56:09;2.40;99.90
29939;DHT22;16799;50.844;5.304;2023-03-03T01:58:44;2.40;99.90
29939;DHT22;16799;50.844;5.304;2023-03-03T02:01:14;2.40;99.90
29939;DHT22;16799;50.844;5.304;2023-03-03T02:03:42;2.20;99.90
29939;DHT22;16799;50.844;5.304;2023-03-03T02:06:14;2.10;99.90
29939;DHT22;16799;50.844;5.304;2023-03-03T02:08:50;2.00;99.90
29939;DHT22;16799;50.844;5.304;2023-03-03T02:11:19;2.10;99.90
29939;DHT22;16799;50.844;5.304;2023-03-03T02:13:45;2.00;99.90
29939;DHT22;16799;50.844;5.304;2023-03-03T02:16:11;2.00;99.90
29939;DHT22;16799;50.844;5.304;2023-03-03T02:18:37;2.10;99.90
29939;DHT22;16799;50.844;5.304;2023-03-03T02:21:10;2.20;99.90
29939;DHT22;16799;50.844;5.304;2023-03-03T02:26:16;2.40;99.90
29939;DHT22;16799;50.844;5.304;2023-03-03T02:28:43;2.40;99.90
29939;DHT22;16799;50.844;5.304;2023-03-03T02:31:14;2.20;99.90
29939;DHT22;16799;50.844;5.304;2023-03-03T02:33:46;2.10;99.90
29939;DHT22;16799;50.844;5.304;2023-03-03T02:36:26;2.10;99.90
29939;DHT22;16799;50.844;5.304;2023-03-03T02:39:07;2.00;99.90
29939;DHT22;16799;50.844;5.304;2023-03-03T02:44:12;2.00;99.90
29939;DHT22;16799;50.844;5.304;2023-03-03T02:46:44;2.00;99.90
29939;DHT22;16799;50.844;5.304;2023-03-03T02:49:12;2.20;99.90
29939;DHT22;16799;50.844;5.304;2023-03-03T02:51:39;2.40;99.90
29939;DHT22;16799;50.844;5.304;2023-03-03T02:54:05;2.40;99.90
29939;DHT22;16799;50.844;5.304;2023-03-03T02:56:32;2.30;99.90
29939;DHT22;16799;50.844;5.304;2023-03-03T02:58:57;2.10;99.90
29939;DHT22;16799;50.844;5.304;2023-03-03T03:01:23;2.30;99.90
29939;DHT22;16799;50.844;5.304;2023-03-03T03:03:49;2.30;99.90
29939;DHT22;16799;50.844;5.304;2023-03-03T03:06:15;2.20;99.90
29939;DHT22;16799;50.844;5.304;2023-03-03T03:08:40;2.10;99.90
29939;DHT22;16799;50.844;5.304;2023-03-03T03:11:06;1.90;99.90
29939;DHT22;16799;50.844;5.304;2023-03-03T03:13:32;1.90;99.90
29939;DHT22;16799;50.844;5.304;2023-03-03T03:15:58;1.90;99.90
29939;DHT22;16799;50.844;5.304;2023-03-03T03:18:25;2.00;99.90
29939;DHT22;16799;50.844;5.304;2023-03-03T03:20:51;2.00;99.90
29939;DHT22;16799;50.844;5.304;2023-03-03T03:23:17;1.90;99.90
29939;DHT22;16799;50.844;5.304;2023-03-03T03:25:43;1.80;99.90
29939;DHT22;16799;50.844;5.304;2023-03-03T03:28:13;1.80;99.90
29939;DHT22;16799;50.844;5.304;2023-03-03T03:30:39;1.70;99.90
29939;DHT22;16799;50.844;5.304;2023-03-03T03:33:06;1.70;99.90
29939;DHT22;16799;50.844;5.304;2023-03-03T03:35:33;1.80;99.90
29939;DHT22;16799;50.844;5.304;2023-03-03T03:37:59;1.80;99.90
29939;DHT22;16799;50.844;5.304;2023-03-03T03:40:25;1.70;99.90
29939;DHT22;16799;50.844;5.304;2023-03-03T03:42:52;1.80;99.90
29939;DHT22;16799;50.844;5.304;2023-03-03T03:45:18;1.90;99.90
29939;DHT22;16799;50.844;5.304;2023-03-03T03:47:44;1.90;99.90
29939;DHT22;16799;50.844;5.304;2023-03-03T03:50:10;1.70;99.90
29939;DHT22;16799;50.844;5.304;2023-03-03T03:52:36;1.70;99.90
29939;DHT22;16799;50.844;5.304;2023-03-03T03:55:02;1.60;99.90
29939;DHT22;16799;50.844;5.304;2023-03-03T03:57:28;1.70;99.90
29939;DHT22;16799;50.844;5.304;2023-03-03T03:59:54;1.50;99.90
29939;DHT22;16799;50.844;5.304;2023-03-03T04:02:19;1.50;99.90
29939;DHT22;16799;50.844;5.304;2023-03-03T04:04:45;1.50;99.90
29939;DHT22;16799;50.844;5.304;2023-03-03T04:07:11;1.50;99.90
29939;DHT22;16799;50.844;5.304;2023-03-03T04:09:37;1.60;99.90
29939;DHT22;16799;50.844;5.304;2023-03-03T04:12:02;1.60;99.90
29939;DHT22;16799;50.844;5.304;2023-03-03T04:14:28;1.50;99.90
29939;DHT22;16799;50.844;5.304;2023-03-03T04:16:54;1.50;99.90
29939;DHT22;16799;50.844;5.304;2023-03-03T04:19:20;1.50;99.90
29939;DHT22;16799;50.844;5.304;2023-03-03T04:21:46;1.50;99.90
29939;DHT22;16799;50.844;5.304;2023-03-03T04:24:12;1.60;99.90
29939;DHT22;16799;50.844;5.304;2023-03-03T04:26:37;1.60;99.90
29939;DHT22;16799;50.844;5.304;2023-03-03T04:29:03;1.70;99.90
29939;DHT22;16799;50.844;5.304;2023-03-03T04:31:29;1.70;99.90
29939;DHT22;16799;50.844;5.304;2023-03-03T04:33:55;1.80;99.90
29939;DHT22;16799;50.844;5.304;2023-03-03T04:36:21;1.70;99.90
29939;DHT22;16799;50.844;5.304;2023-03-03T04:38:46;1.80;99.90
29939;DHT22;16799;50.844;5.304;2023-03-03T04:41:13;1.80;99.90
29939;DHT22;16799;50.844;5.304;2023-03-03T04:43:39;1.80;99.90
29939;DHT22;16799;50.844;5.304;2023-03-03T04:46:04;1.80;99.90
29939;DHT22;16799;50.844;5.304;2023-03-03T04:48:30;1.70;99.90
29939;DHT22;16799;50.844;5.304;2023-03-03T04:50:56;1.60;99.90
29939;DHT22;16799;50.844;5.304;2023-03-03T04:53:22;1.40;99.90
29939;DHT22;16799;50.844;5.304;2023-03-03T04:55:52;1.30;99.90
29939;DHT22;16799;50.844;5.304;2023-03-03T04:58:18;1.40;99.90
29939;DHT22;16799;50.844;5.304;2023-03-03T05:00:45;1.30;99.90
29939;DHT22;16799;50.844;5.304;2023-03-03T05:03:11;1.40;99.90
29939;DHT22;16799;50.844;5.304;2023-03-03T05:05:37;1.50;99.90
29939;DHT22;16799;50.844;5.304;2023-03-03T05:08:04;1.40;99.90
29939;DHT22;16799;50.844;5.304;2023-03-03T05:10:30;1.50;99.90
29939;DHT22;16799;50.844;5.304;2023-03-03T05:12:56;1.60;99.90
29939;DHT22;16799;50.844;5.304;2023-03-03T05:15:21;1.50;99.90
29939;DHT22;16799;50.844;5.304;2023-03-03T05:17:47;1.40;99.90
29939;DHT22;16799;50.844;5.304;2023-03-03T05:20:13;1.30;99.90
29939;DHT22;16799;50.844;5.304;2023-03-03T05:22:39;1.30;99.90
29939;DHT22;16799;50.844;5.304;2023-03-03T05:25:05;1.30;99.90
29939;DHT22;16799;50.844;5.304;2023-03-03T05:27:31;1.30;99.90
29939;DHT22;16799;50.844;5.304;2023-03-03T05:29:56;1.30;99.90
29939;DHT22;16799;50.844;5.304;2023-03-03T05:32:22;1.40;99.90
29939;DHT22;16799;50.844;5.304;2023-03-03T05:34:47;1.40;99.90
29939;DHT22;16799;50.844;5.304;2023-03-03T05:37:13;1.40;99.90
29939;DHT22;16799;50.844;5.304;2023-03-03T05:39:39;1.30;99.90
29939;DHT22;16799;50.844;5.304;2023-03-03T05:42:05;1.30;99.90
29939;DHT22;16799;50.844;5.304;2023-03-03T05:44:31;1.30;99.90
29939;DHT22;16799;50.844;5.304;2023-03-03T05:46:56;1.40;99.90
29939;DHT22;16799;50.844;5.304;2023-03-03T05:49:24;1.30;99.90
29939;DHT22;16799;50.844;5.304;2023-03-03T05:51:50;1.40;99.90
29939;DHT22;16799;50.844;5.304;2023-03-03T05:54:16;1.50;99.90
29939;DHT22;16799;50.844;5.304;2023-03-03T05:56:41;1.50;99.90
29939;DHT22;16799;50.844;5.304;2023-03-03T05:59:07;1.50;99.90
29939;DHT22;16799;50.844;5.304;2023-03-03T06:01:33;1.50;99.90
29939;DHT22;16799;50.844;5.304;2023-03-03T06:03:58;1.50;99.90
29939;DHT22;16799;50.844;5.304;2023-03-03T06:06:24;1.40;99.90
29939;DHT22;16799;50.844;5.304;2023-03-03T06:08:50;1.40;99.90
29939;DHT22;16799;50.844;5.304;2023-03-03T06:11:18;1.30;99.90
29939;DHT22;16799;50.844;5.304;2023-03-03T06:13:44;1.30;99.90
29939;DHT22;16799;50.844;5.304;2023-03-03T06:16:09;1.20;99.90
29939;DHT22;16799;50.844;5.304;2023-03-03T06:18:35;1.20;99.90
29939;DHT22;16799;50.844;5.304;2023-03-03T06:21:01;1.40;99.90
29939;DHT22;16799;50.844;5.304;2023-03-03T06:23:26;1.40;99.90
29939;DHT22;16799;50.844;5.304;2023-03-03T06:25:52;1.40;99.90
29939;DHT22;16799;50.844;5.304;2023-03-03T06:28:18;1.30;99.90
29939;DHT22;16799;50.844;5.304;2023-03-03T06:30:44;1.30;99.90
29939;DHT22;16799;50.844;5.304;2023-03-03T06:33:09;1.30;99.90
29939;DHT22;16799;50.844;5.304;2023-03-03T06:35:35;1.50;99.90
29939;DHT22;16799;50.844;5.304;2023-03-03T06:38:01;1.40;99.90
29939;DHT22;16799;50.844;5.304;2023-03-03T06:40:27;1.50;99.90
29939;DHT22;16799;50.844;5.304;2023-03-03T06:42:52;1.60;99.90
29939;DHT22;16799;50.844;5.304;2023-03-03T06:45:18;1.70;99.90
29939;DHT22;16799;50.844;5.304;2023-03-03T06:47:44;1.60;99.90
29939;DHT22;16799;50.844;5.304;2023-03-03T06:50:11;1.60;99.90
29939;DHT22;16799;50.844;5.304;2023-03-03T06:52:37;1.70;99.90
29939;DHT22;16799;50.844;5.304;2023-03-03T06:55:17;1.60;99.90
29939;DHT22;16799;50.844;5.304;2023-03-03T06:57:45;1.60;99.90
29939;DHT22;16799;50.844;5.304;2023-03-03T07:00:37;1.50;99.90
29939;DHT22;16799;50.844;5.304;2023-03-03T07:03:23;1.70;99.90
29939;DHT22;16799;50.844;5.304;2023-03-03T07:05:49;1.60;99.90
29939;DHT22;16799;50.844;5.304;2023-03-03T07:08:18;1.50;99.90
29939;DHT22;16799;50.844;5.304;2023-03-03T07:10:45;1.60;99.90
29939;DHT22;16799;50.844;5.304;2023-03-03T07:13:31;1.50;99.90
29939;DHT22;16799;50.844;5.304;2023-03-03T07:16:02;1.50;99.90
29939;DHT22;16799;50.844;5.304;2023-03-03T07:18:37;1.50;99.90
29939;DHT22;16799;50.844;5.304;2023-03-03T07:21:18;1.50;99.90
29939;DHT22;16799;50.844;5.304;2023-03-03T07:23:47;1.60;99.90
29939;DHT22;16799;50.844;5.304;2023-03-03T07:26:19;1.70;99.90
29939;DHT22;16799;50.844;5.304;2023-03-03T07:28:59;1.70;99.90
29939;DHT22;16799;50.844;5.304;2023-03-03T07:34:23;1.70;99.90
29939;DHT22;16799;50.844;5.304;2023-03-03T07:36:53;1.60;99.90
29939;DHT22;16799;50.844;5.304;2023-03-03T07:39:35;1.40;99.90
29939;DHT22;16799;50.844;5.304;2023-03-03T07:44:36;1.20;99.90
29939;DHT22;16799;50.844;5.304;2023-03-03T07:47:34;1.20;99.90
29939;DHT22;16799;50.844;5.304;2023-03-03T07:50:12;1.20;99.90
29939;DHT22;16799;50.844;5.304;2023-03-03T07:52:42;1.20;99.90
29939;DHT22;16799;50.844;5.304;2023-03-03T07:57:50;1.10;99.90
29939;DHT22;16799;50.844;5.304;2023-03-03T08:03:04;1.30;99.90
29939;DHT22;16799;50.844;5.304;2023-03-03T08:10:54;1.40;99.90
29939;DHT22;16799;50.844;5.304;2023-03-03T08:13:36;1.30;99.90
29939;DHT22;16799;50.844;5.304;2023-03-03T08:21:12;1.30;99.90
29939;DHT22;16799;50.844;5.304;2023-03-03T08:23:37;1.30;99.90
29939;DHT22;16799;50.844;5.304;2023-03-03T08:26:03;1.30;99.90
29939;DHT22;16799;50.844;5.304;2023-03-03T08:28:29;1.20;99.90
29939;DHT22;16799;50.844;5.304;2023-03-03T08:30:55;1.30;99.90
29939;DHT22;16799;50.844;5.304;2023-03-03T08:33:21;1.20;99.90
29939;DHT22;16799;50.844;5.304;2023-03-03T08:35:46;1.40;99.90
29939;DHT22;16799;50.844;5.304;2023-03-03T08:38:16;1.50;99.90
29939;DHT22;16799;50.844;5.304;2023-03-03T08:40:42;1.50;99.90
29939;DHT22;16799;50.844;5.304;2023-03-03T08:43:09;1.60;99.90
29939;DHT22;16799;50.844;5.304;2023-03-03T08:45:35;1.80;99.90
29939;DHT22;16799;50.844;5.304;2023-03-03T08:48:02;1.80;99.90
29939;DHT22;16799;50.844;5.304;2023-03-03T08:50:28;1.70;99.90
29939;DHT22;16799;50.844;5.304;2023-03-03T08:52:54;1.70;99.90
29939;DHT22;16799;50.844;5.304;2023-03-03T08:55:20;2.00;99.90
29939;DHT22;16799;50.844;5.304;2023-03-03T08:57:46;2.10;99.90
29939;DHT22;16799;50.844;5.304;2023-03-03T09:00:15;2.10;99.90
29939;DHT22;16799;50.844;5.304;2023-03-03T09:02:41;2.00;99.90
29939;DHT22;16799;50.844;5.304;2023-03-03T09:05:08;2.20;99.90
29939;DHT22;16799;50.844;5.304;2023-03-03T09:07:34;2.10;99.90
29939;DHT22;16799;50.844;5.304;2023-03-03T09:10:00;2.00;99.90
29939;DHT22;16799;50.844;5.304;2023-03-03T09:12:33;2.10;99.90
29939;DHT22;16799;50.844;5.304;2023-03-03T09:15:26;2.30;99.90
29939;DHT22;16799;50.844;5.304;2023-03-03T09:17:54;2.50;99.90
29939;DHT22;16799;50.844;5.304;2023-03-03T09:20:37;2.50;99.90
29939;DHT22;16799;50.844;5.304;2023-03-03T09:28:47;2.20;99.90
29939;DHT22;16799;50.844;5.304;2023-03-03T09:31:23;2.30;99.90
29939;DHT22;16799;50.844;5.304;2023-03-03T09:33:49;2.50;99.90
29939;DHT22;16799;50.844;5.304;2023-03-03T09:38:45;2.70;99.90
29939;DHT22;16799;50.844;5.304;2023-03-03T09:58:35;2.80;99.90
29939;DHT22;16799;50.844;5.304;2023-03-03T10:12:54;2.90;99.90
29939;DHT22;16799;50.844;5.304;2023-03-03T10:15:34;3.10;99.90
29939;DHT22;16799;50.844;5.304;2023-03-03T10:20:46;3.10;99.90
29939;DHT22;16799;50.844;5.304;2023-03-03T10:39:47;4.30;99.90
29939;DHT22;16799;50.844;5.304;2023-03-03T10:53:26;4.00;99.90
29939;DHT22;16799;50.844;5.304;2023-03-03T11:01:48;4.20;99.90
29939;DHT22;16799;50.844;5.304;2023-03-03T11:18:10;4.70;99.90
29939;DHT22;16799;50.844;5.304;2023-03-03T11:20:44;4.60;99.90
29939;DHT22;16799;50.844;5.304;2023-03-03T11:26:35;4.40;99.90
29939;DHT22;16799;50.844;5.304;2023-03-03T11:31:28;4.50;99.90
29939;DHT22;16799;50.844;5.304;2023-03-03T11:36:33;4.70;99.90
29939;DHT22;16799;50.844;5.304;2023-03-03T11:39:08;4.90;99.90
29939;DHT22;16799;50.844;5.304;2023-03-03T11:41:50;5.00;99.90
29939;DHT22;16799;50.844;5.304;2023-03-03T11:45:11;5.20;99.90
29939;DHT22;16799;50.844;5.304;2023-03-03T11:50:17;5.30;99.90
29939;DHT22;16799;50.844;5.304;2023-03-03T11:56:38;5.40;99.90
29939;DHT22;16799;50.844;5.304;2023-03-03T12:01:52;5.40;99.90
29939;DHT22;16799;50.844;5.304;2023-03-03T12:04:38;5.50;99.90
29939;DHT22;16799;50.844;5.304;2023-03-03T12:07:23;5.50;99.90
29939;DHT22;16799;50.844;5.304;2023-03-03T12:12:30;5.40;99.90
29939;DHT22;16799;50.844;5.304;2023-03-03T12:15:00;5.60;99.90
29939;DHT22;16799;50.844;5.304;2023-03-03T12:23:05;5.60;99.90
29939;DHT22;16799;50.844;5.304;2023-03-03T12:28:44;5.90;99.90
29939;DHT22;16799;50.844;5.304;2023-03-03T12:34:31;5.40;99.90
29939;DHT22;16799;50.844;5.304;2023-03-03T12:42:35;6.00;99.90
29939;DHT22;16799;50.844;5.304;2023-03-03T12:48:04;5.90;99.90
29939;DHT22;16799;50.844;5.304;2023-03-03T12:50:39;5.90;99.90
29939;DHT22;16799;50.844;5.304;2023-03-03T12:56:03;6.30;99.90
29939;DHT22;16799;50.844;5.304;2023-03-03T12:58:42;6.00;99.90
29939;DHT22;16799;50.844;5.304;2023-03-03T13:04:07;5.90;99.90
29939;DHT22;16799;50.844;5.304;2023-03-03T13:06:47;6.00;99.90
29939;DHT22;16799;50.844;5.304;2023-03-03T13:17:48;6.30;99.80
29939;DHT22;16799;50.844;5.304;2023-03-03T13:25:52;6.70;99.90
29939;DHT22;16799;50.844;5.304;2023-03-03T13:31:20;7.10;98.90
29939;DHT22;16799;50.844;5.304;2023-03-03T13:33:55;7.20;97.60
29939;DHT22;16799;50.844;5.304;2023-03-03T13:36:34;7.30;97.60
29939;DHT22;16799;50.844;5.304;2023-03-03T13:39:24;7.40;96.70
29939;DHT22;16799;50.844;5.304;2023-03-03T13:41:59;7.80;96.90
29939;DHT22;16799;50.844;5.304;2023-03-03T13:44:35;8.10;95.90
29939;DHT22;16799;50.844;5.304;2023-03-03T13:52:11;8.20;95.80
29939;DHT22;16799;50.844;5.304;2023-03-03T14:00:33;8.20;94.70
29939;DHT22;16799;50.844;5.304;2023-03-03T14:05:50;9.10;91.70
29939;DHT22;16799;50.844;5.304;2023-03-03T14:16:36;8.10;93.20
29939;DHT22;16799;50.844;5.304;2023-03-03T14:21:42;8.00;94.30
29939;DHT22;16799;50.844;5.304;2023-03-03T14:24:16;8.20;94.70
29939;DHT22;16799;50.844;5.304;2023-03-03T14:26:51;8.20;94.10
29939;DHT22;16799;50.844;5.304;2023-03-03T14:31:57;8.50;93.60
29939;DHT22;16799;50.844;5.304;2023-03-03T14:34:39;8.60;93.70
29939;DHT22;16799;50.844;5.304;2023-03-03T14:37:43;8.60;93.70
29939;DHT22;16799;50.844;5.304;2023-03-03T14:43:01;7.80;94.80
29939;DHT22;16799;50.844;5.304;2023-03-03T14:45:32;7.60;95.30
29939;DHT22;16799;50.844;5.304;2023-03-03T14:47:59;7.40;96.40
29939;DHT22;16799;50.844;5.304;2023-03-03T14:50:42;7.40;96.30
29939;DHT22;16799;50.844;5.304;2023-03-03T14:53:19;7.10;96.80
29939;DHT22;16799;50.844;5.304;2023-03-03T14:55:52;7.20;97.30
29939;DHT22;16799;50.844;5.304;2023-03-03T14:58:28;7.40;97.30
29939;DHT22;16799;50.844;5.304;2023-03-03T15:01:23;7.30;97.10
29939;DHT22;16799;50.844;5.304;2023-03-03T15:04:35;7.20;97.50
29939;DHT22;16799;50.844;5.304;2023-03-03T15:06:55;7.10;98.10
29939;DHT22;16799;50.844;5.304;2023-03-03T15:09:36;6.90;98.70
29939;DHT22;16799;50.844;5.304;2023-03-03T15:12:34;7.10;98.50
29939;DHT22;16799;50.844;5.304;2023-03-03T15:15:17;6.90;98.10
29939;DHT22;16799;50.844;5.304;2023-03-03T15:20:41;6.70;99.60
29939;DHT22;16799;50.844;5.304;2023-03-03T15:25:58;6.90;99.30
29939;DHT22;16799;50.844;5.304;2023-03-03T15:36:51;6.60;99.90
29939;DHT22;16799;50.844;5.304;2023-03-03T15:42:03;6.70;99.90
29939;DHT22;16799;50.844;5.304;2023-03-03T15:45:01;6.70;99.90
29939;DHT22;16799;50.844;5.304;2023-03-03T15:50:20;6.70;99.90
29939;DHT22;16799;50.844;5.304;2023-03-03T15:56:08;6.70;99.90
29939;DHT22;16799;50.844;5.304;2023-03-03T15:58:45;6.80;99.50
29939;DHT22;16799;50.844;5.304;2023-03-03T16:01:31;6.80;99.60
29939;DHT22;16799;50.844;5.304;2023-03-03T16:04:13;6.70;99.90
29939;DHT22;16799;50.844;5.304;2023-03-03T16:06:55;6.60;99.90
29939;DHT22;16799;50.844;5.304;2023-03-03T16:15:23;6.50;99.90
29939;DHT22;16799;50.844;5.304;2023-03-03T16:23:49;6.70;99.90
29939;DHT22;16799;50.844;5.304;2023-03-03T16:32:08;6.40;99.90
29939;DHT22;16799;50.844;5.304;2023-03-03T16:34:53;6.40;99.90
29939;DHT22;16799;50.844;5.304;2023-03-03T16:37:35;6.30;99.90
29939;DHT22;16799;50.844;5.304;2023-03-03T16:42:43;6.40;99.90
29939;DHT22;16799;50.844;5.304;2023-03-03T16:45:21;6.50;99.90
29939;DHT22;16799;50.844;5.304;2023-03-03T17:04:02;5.50;99.90
29939;DHT22;16799;50.844;5.304;2023-03-03T17:09:44;5.50;99.90
29939;DHT22;16799;50.844;5.304;2023-03-03T17:20:43;5.00;99.90
29939;DHT22;16799;50.844;5.304;2023-03-03T17:23:29;4.90;99.90
29939;DHT22;16799;50.844;5.304;2023-03-03T17:31:15;4.70;99.90
29939;DHT22;16799;50.844;5.304;2023-03-03T17:34:14;4.60;99.90
29939;DHT22;16799;50.844;5.304;2023-03-03T17:44:40;4.40;99.90
29939;DHT22;16799;50.844;5.304;2023-03-03T17:47:15;4.50;99.90
29939;DHT22;16799;50.844;5.304;2023-03-03T17:58:46;3.90;99.90
29939;DHT22;16799;50.844;5.304;2023-03-03T18:18:05;3.30;99.90
29939;DHT22;16799;50.844;5.304;2023-03-03T18:20:49;3.20;99.90
29939;DHT22;16799;50.844;5.304;2023-03-03T18:29:12;3.60;99.90
29939;DHT22;16799;50.844;5.304;2023-03-03T18:32:01;3.60;99.90
29939;DHT22;16799;50.844;5.304;2023-03-03T18:37:54;3.30;99.90
29939;DHT22;16799;50.844;5.304;2023-03-03T18:40:14;3.20;99.90
29939;DHT22;16799;50.844;5.304;2023-03-03T18:42:42;2.70;99.90
29939;DHT22;16799;50.844;5.304;2023-03-03T18:48:10;2.60;99.90
29939;DHT22;16799;50.844;5.304;2023-03-03T18:50:51;2.60;99.90
29939;DHT22;16799;50.844;5.304;2023-03-03T18:53:27;2.50;99.90
29939;DHT22;16799;50.844;5.304;2023-03-03T18:58:35;2.70;99.90
29939;DHT22;16799;50.844;5.304;2023-03-03T19:08:57;2.40;99.90
29939;DHT22;16799;50.844;5.304;2023-03-03T19:11:39;2.60;99.90
29939;DHT22;16799;50.844;5.304;2023-03-03T19:16:55;2.40;99.90
29939;DHT22;16799;50.844;5.304;2023-03-03T19:19:28;2.10;99.90
29939;DHT22;16799;50.844;5.304;2023-03-03T19:22:21;2.10;99.90
29939;DHT22;16799;50.844;5.304;2023-03-03T19:27:42;1.80;99.90
29939;DHT22;16799;50.844;5.304;2023-03-03T19:44:23;1.50;99.90
29939;DHT22;16799;50.844;5.304;2023-03-03T19:46:57;1.40;99.90
29939;DHT22;16799;50.844;5.304;2023-03-03T19:52:41;1.10;99.90
29939;DHT22;16799;50.844;5.304;2023-03-03T20:00:54;1.00;99.90
29939;DHT22;16799;50.844;5.304;2023-03-03T20:03:24;1.10;99.90
29939;DHT22;16799;50.844;5.304;2023-03-03T20:11:38;1.10;99.90
29939;DHT22;16799;50.844;5.304;2023-03-03T20:14:35;0.80;99.90
29939;DHT22;16799;50.844;5.304;2023-03-03T20:17:28;0.70;99.90
29939;DHT22;16799;50.844;5.304;2023-03-03T20:22:55;1.00;99.90
29939;DHT22;16799;50.844;5.304;2023-03-03T20:25:27;1.30;99.90
29939;DHT22;16799;50.844;5.304;2023-03-03T20:46:41;1.20;99.90
29939;DHT22;16799;50.844;5.304;2023-03-03T20:51:55;1.80;99.90
29939;DHT22;16799;50.844;5.304;2023-03-03T20:54:43;1.90;99.90
29939;DHT22;16799;50.844;5.304;2023-03-03T21:00:14;2.00;99.90
29939;DHT22;16799;50.844;5.304;2023-03-03T21:02:58;2.10;99.90
29939;DHT22;16799;50.844;5.304;2023-03-03T21:05:27;2.10;99.90
29939;DHT22;16799;50.844;5.304;2023-03-03T21:07:56;2.00;99.90
29939;DHT22;16799;50.844;5.304;2023-03-03T21:10:33;2.10;99.90
29939;DHT22;16799;50.844;5.304;2023-03-03T21:15:54;2.30;99.90
29939;DHT22;16799;50.844;5.304;2023-03-03T21:18:21;2.40;99.90
29939;DHT22;16799;50.844;5.304;2023-03-03T21:20:49;2.50;99.90
29939;DHT22;16799;50.844;5.304;2023-03-03T21:23:15;2.50;99.90
29939;DHT22;16799;50.844;5.304;2023-03-03T21:25:43;2.50;99.90
29939;DHT22;16799;50.844;5.304;2023-03-03T21:28:16;2.60;99.90
29939;DHT22;16799;50.844;5.304;2023-03-03T21:36:16;2.60;99.90
29939;DHT22;16799;50.844;5.304;2023-03-03T21:38:43;2.80;99.90
29939;DHT22;16799;50.844;5.304;2023-03-03T21:41:11;2.90;99.90
29939;DHT22;16799;50.844;5.304;2023-03-03T21:46:05;2.90;99.90
29939;DHT22;16799;50.844;5.304;2023-03-03T21:48:31;2.90;99.90
29939;DHT22;16799;50.844;5.304;2023-03-03T21:50:57;3.10;99.90
29939;DHT22;16799;50.844;5.304;2023-03-03T21:53:22;3.40;99.90
29939;DHT22;16799;50.844;5.304;2023-03-03T21:55:53;3.40;99.90
29939;DHT22;16799;50.844;5.304;2023-03-03T21:58:19;3.20;99.90
29939;DHT22;16799;50.844;5.304;2023-03-03T22:00:45;3.00;99.90
29939;DHT22;16799;50.844;5.304;2023-03-03T22:03:12;2.90;99.90
29939;DHT22;16799;50.844;5.304;2023-03-03T22:05:38;2.80;99.90
29939;DHT22;16799;50.844;5.304;2023-03-03T22:08:05;3.00;99.90
29939;DHT22;16799;50.844;5.304;2023-03-03T22:10:30;2.80;99.90
29939;DHT22;16799;50.844;5.304;2023-03-03T22:12:56;2.90;99.90
29939;DHT22;16799;50.844;5.304;2023-03-03T22:15:22;2.80;99.90
29939;DHT22;16799;50.844;5.304;2023-03-03T22:17:48;2.80;99.90
29939;DHT22;16799;50.844;5.304;2023-03-03T22:20:14;2.80;99.90
29939;DHT22;16799;50.844;5.304;2023-03-03T22:22:40;2.60;99.90
29939;DHT22;16799;50.844;5.304;2023-03-03T22:25:06;2.60;99.90
29939;DHT22;16799;50.844;5.304;2023-03-03T22:27:32;2.70;99.90
29939;DHT22;16799;50.844;5.304;2023-03-03T22:29:59;2.90;99.90
29939;DHT22;16799;50.844;5.304;2023-03-03T22:32:25;2.80;99.90
29939;DHT22;16799;50.844;5.304;2023-03-03T22:34:51;2.90;99.90
29939;DHT22;16799;50.844;5.304;2023-03-03T22:37:17;2.90;99.90
29939;DHT22;16799;50.844;5.304;2023-03-03T22:39:42;2.40;99.90
29939;DHT22;16799;50.844;5.304;2023-03-03T22:42:08;2.30;99.90
29939;DHT22;16799;50.844;5.304;2023-03-03T22:44:35;2.50;99.90
29939;DHT22;16799;50.844;5.304;2023-03-03T22:47:01;2.60;99.90
29939;DHT22;16799;50.844;5.304;2023-03-03T22:49:27;2.50;99.90
29939;DHT22;16799;50.844;5.304;2023-03-03T22:51:53;2.70;99.90
29939;DHT22;16799;50.844;5.304;2023-03-03T22:54:18;2.90;99.90
29939;DHT22;16799;50.844;5.304;2023-03-03T22:56:44;2.90;99.90
29939;DHT22;16799;50.844;5.304;2023-03-03T22:59:11;2.90;99.90
29939;DHT22;16799;50.844;5.304;2023-03-03T23:01:37;3.10;99.90
29939;DHT22;16799;50.844;5.304;2023-03-03T23:04:02;3.10;99.90
29939;DHT22;16799;50.844;5.304;2023-03-03T23:06:28;3.20;99.90